createdAt,value
2022-09-12T00:01:19.196Z,101768.84
2022-09-12T00:03:45.940Z,101764.16
2022-09-12T00:06:22.929Z,101762.94
2022-09-12T00:08:50.421Z,101767.59
2022-09-12T00:11:16.957Z,101777.50
2022-09-12T00:13:43.595Z,101755.41
2022-09-12T00:16:19.206Z,101768.38
2022-09-12T00:18:46.054Z,101755.56
2022-09-12T00:21:12.954Z,101746.03
2022-09-12T00:23:39.292Z,101762.00
2022-09-12T00:26:07.155Z,101762.66
2022-09-12T00:28:35.724Z,101755.34
2022-09-12T00:31:05.722Z,101765.84
2022-09-12T00:33:32.391Z,101761.78
2022-09-12T00:35:58.782Z,101746.00
2022-09-12T00:38:25.100Z,101762.16
2022-09-12T00:40:51.521Z,101744.97
2022-09-12T00:43:29.756Z,101746.34
2022-09-12T00:45:58.371Z,101740.66
2022-09-12T00:48:33.619Z,101745.13
2022-09-12T00:51:00.753Z,101746.91
2022-09-12T00:53:27.782Z,101738.41
2022-09-12T00:55:55.947Z,101746.91
2022-09-12T00:58:27.069Z,101744.25
2022-09-12T01:00:53.662Z,101747.28
2022-09-12T01:03:23.034Z,101737.72
2022-09-12T01:05:56.455Z,101740.53
2022-09-12T01:08:23.431Z,101745.78
2022-09-12T01:10:49.927Z,101727.75
2022-09-12T01:13:16.743Z,101738.69
2022-09-12T01:15:43.166Z,101730.94
2022-09-12T01:18:32.210Z,101737.22
2022-09-12T01:21:17.444Z,101744.25
2022-09-12T01:23:43.741Z,101739.22
2022-09-12T01:26:35.262Z,101746.25
2022-09-12T01:29:37.468Z,101718.91
2022-09-12T01:32:15.392Z,101737.16
2022-09-12T01:35:02.451Z,101725.41
2022-09-12T01:37:39.253Z,101731.25
2022-09-12T01:40:11.712Z,101714.81
2022-09-12T01:42:54.957Z,101709.94
2022-09-12T01:45:28.989Z,101720.06
2022-09-12T01:48:13.512Z,101718.44
2022-09-12T01:50:46.644Z,101707.72
2022-09-12T01:53:21.022Z,101711.38
2022-09-12T01:56:13.211Z,101693.00
2022-09-12T01:59:02.642Z,101703.16
2022-09-12T02:01:32.748Z,101696.31
2022-09-12T02:04:11.340Z,101698.31
2022-09-12T02:06:48.634Z,101683.88
2022-09-12T02:09:34.256Z,101688.56
2022-09-12T02:12:01.539Z,101678.06
2022-09-12T02:14:32.191Z,101677.50
2022-09-12T02:17:14.688Z,101664.34
2022-09-12T02:19:46.374Z,101677.69
2022-09-12T02:22:17.660Z,101676.06
2022-09-12T02:24:48.000Z,101676.25
2022-09-12T02:27:18.066Z,101659.19
2022-09-12T02:29:45.498Z,101669.94
2022-09-12T02:32:29.865Z,101666.34
2022-09-12T02:35:14.624Z,101652.97
2022-09-12T02:38:09.899Z,101662.50
2022-09-12T02:40:37.255Z,101662.69
2022-09-12T02:43:05.149Z,101656.22
2022-09-12T02:45:32.842Z,101648.47
2022-09-12T02:48:16.830Z,101651.47
2022-09-12T02:50:43.475Z,101653.72
2022-09-12T02:53:10.566Z,101661.59
2022-09-12T02:55:39.245Z,101650.44
2022-09-12T02:58:10.383Z,101650.63
2022-09-12T03:01:02.817Z,101659.75
2022-09-12T03:03:49.971Z,101648.81
2022-09-12T03:06:23.279Z,101651.44
2022-09-12T03:09:05.057Z,101640.41
2022-09-12T03:11:34.163Z,101646.81
2022-09-12T03:14:23.043Z,101642.09
2022-09-12T03:16:49.480Z,101643.91
2022-09-12T03:19:20.989Z,101645.09
2022-09-12T03:22:09.077Z,101633.31
2022-09-12T03:24:40.888Z,101631.03
2022-09-12T03:27:17.051Z,101643.00
2022-09-12T03:29:45.507Z,101639.91
2022-09-12T03:32:11.850Z,101645.53
2022-09-12T03:34:38.194Z,101639.84
2022-09-12T03:37:04.827Z,101647.47
2022-09-12T03:39:31.151Z,101640.78
2022-09-12T03:41:57.652Z,101628.00
2022-09-12T03:44:24.802Z,101644.97
2022-09-12T03:46:51.402Z,101646.16
2022-09-12T03:49:17.719Z,101634.94
2022-09-12T03:51:44.286Z,101633.59
2022-09-12T03:54:11.264Z,101636.38
2022-09-12T03:56:37.711Z,101632.78
2022-09-12T03:59:07.272Z,101619.78
2022-09-12T04:01:34.411Z,101629.53
2022-09-12T04:04:00.816Z,101622.03
2022-09-12T04:06:27.167Z,101612.69
2022-09-12T04:08:54.864Z,101619.97
2022-09-12T04:11:22.846Z,101619.16
2022-09-12T04:13:49.797Z,101616.56
2022-09-12T04:16:17.304Z,101605.94
2022-09-12T04:18:43.958Z,101596.47
2022-09-12T04:21:16.716Z,101610.38
2022-09-12T04:23:43.641Z,101613.94
2022-09-12T04:26:10.496Z,101611.31
2022-09-12T04:28:38.369Z,101613.13
2022-09-12T04:31:08.163Z,101619.16
2022-09-12T04:33:37.223Z,101604.97
2022-09-12T04:36:05.786Z,101611.66
2022-09-12T04:38:33.115Z,101608.78
2022-09-12T04:40:59.464Z,101613.31
2022-09-12T04:43:25.836Z,101594.94
2022-09-12T04:45:52.371Z,101610.38
2022-09-12T04:48:18.737Z,101608.50
2022-09-12T04:50:45.070Z,101614.38
2022-09-12T04:53:11.400Z,101619.88
2022-09-12T04:55:37.733Z,101620.69
2022-09-12T04:58:04.051Z,101618.25
2022-09-12T05:00:30.372Z,101616.34
2022-09-12T05:02:56.678Z,101623.66
2022-09-12T05:05:23.036Z,101614.53
2022-09-12T05:07:49.372Z,101605.63
2022-09-12T05:10:15.818Z,101614.75
2022-09-12T05:12:42.139Z,101621.88
2022-09-12T05:15:09.083Z,101618.63
2022-09-12T05:17:35.429Z,101612.94
2022-09-12T05:20:02.670Z,101618.97
2022-09-12T05:22:28.986Z,101611.94
2022-09-12T05:24:55.352Z,101592.09
2022-09-12T05:27:21.700Z,101596.78
2022-09-12T05:29:48.025Z,101608.06
2022-09-12T05:32:14.339Z,101608.88
2022-09-12T05:34:40.708Z,101616.78
2022-09-12T05:37:07.057Z,101624.97
2022-09-12T05:39:33.342Z,101623.06
2022-09-12T05:41:59.669Z,101618.50
2022-09-12T05:44:26.032Z,101615.75
2022-09-12T05:46:52.321Z,101613.56
2022-09-12T05:49:18.681Z,101604.03
2022-09-12T05:51:45.966Z,101622.28
2022-09-12T05:54:15.135Z,101618.28
2022-09-12T05:56:43.833Z,101622.59
2022-09-12T05:59:13.627Z,101630.53
2022-09-12T06:01:40.733Z,101634.81
2022-09-12T06:04:07.520Z,101629.03
2022-09-12T06:06:37.624Z,101626.25
2022-09-12T06:09:05.542Z,101630.53
2022-09-12T06:11:34.081Z,101619.91
2022-09-12T06:14:01.110Z,101617.94
2022-09-12T06:16:29.998Z,101617.94
2022-09-12T06:18:59.046Z,101617.22
2022-09-12T06:21:26.687Z,101619.25
2022-09-12T06:23:56.874Z,101611.56
2022-09-12T06:26:23.406Z,101607.19
2022-09-12T06:28:51.886Z,101615.72
2022-09-12T06:31:20.878Z,101610.09
2022-09-12T06:33:50.102Z,101603.25
2022-09-12T06:36:22.021Z,101593.38
2022-09-12T06:38:48.875Z,101604.56
2022-09-12T06:41:15.586Z,101603.97
2022-09-12T06:43:42.573Z,101605.63
2022-09-12T06:46:10.019Z,101609.06
2022-09-12T06:48:41.523Z,101620.81
2022-09-12T06:51:13.509Z,101606.63
2022-09-12T06:53:40.231Z,101604.44
2022-09-12T06:56:08.887Z,101614.56
2022-09-12T06:58:36.211Z,101606.66
2022-09-12T07:01:24.532Z,101604.63
2022-09-12T07:03:55.548Z,101599.34
2022-09-12T07:06:24.130Z,101604.50
2022-09-12T07:08:50.541Z,101597.91
2022-09-12T07:11:20.016Z,101588.84
2022-09-12T07:13:50.412Z,101599.56
2022-09-12T07:16:19.951Z,101597.97
2022-09-12T07:18:54.139Z,101602.56
2022-09-12T07:21:21.106Z,101600.00
2022-09-12T07:23:48.367Z,101597.25
2022-09-12T07:26:16.296Z,101604.50
2022-09-12T07:28:42.843Z,101614.50
2022-09-12T07:31:15.706Z,101607.31
2022-09-12T07:33:43.080Z,101604.09
2022-09-12T07:36:14.737Z,101603.16
2022-09-12T07:38:41.952Z,101597.81
2022-09-12T07:41:18.455Z,101599.16
2022-09-12T07:43:45.276Z,101592.56
2022-09-12T07:46:12.388Z,101596.06
2022-09-12T07:48:39.553Z,101599.75
2022-09-12T07:51:08.053Z,101593.91
2022-09-12T07:53:37.143Z,101598.13
2022-09-12T07:56:04.490Z,101588.44
2022-09-12T07:58:32.514Z,101593.53
2022-09-12T08:01:06.289Z,101588.94
2022-09-12T08:03:32.643Z,101596.50
2022-09-12T08:06:09.743Z,101596.81
2022-09-12T08:08:36.804Z,101598.78
2022-09-12T08:11:06.020Z,101597.25
2022-09-12T08:13:34.369Z,101607.66
2022-09-12T08:16:03.163Z,101603.53
2022-09-12T08:18:30.798Z,101600.25
2022-09-12T08:20:59.273Z,101605.91
2022-09-12T08:23:26.173Z,101610.00
2022-09-12T08:25:55.935Z,101605.19
2022-09-12T08:28:22.377Z,101593.41
2022-09-12T08:30:48.733Z,101602.75
2022-09-12T08:33:15.076Z,101603.53
2022-09-12T08:35:41.410Z,101599.50
2022-09-12T08:38:07.737Z,101608.34
2022-09-12T08:40:46.823Z,101609.31
2022-09-12T08:43:33.725Z,101601.88
2022-09-12T08:46:16.732Z,101602.25
2022-09-12T08:48:50.227Z,101608.06
2022-09-12T08:51:20.034Z,101597.97
2022-09-12T08:53:49.004Z,101596.16
2022-09-12T08:56:15.397Z,101593.28
2022-09-12T08:58:44.252Z,101596.47
2022-09-12T09:01:33.351Z,101596.22
2022-09-12T09:04:26.904Z,101591.50
2022-09-12T09:07:08.276Z,101590.63
2022-09-12T09:09:49.823Z,101590.63
2022-09-12T09:12:25.296Z,101579.66
2022-09-12T09:14:59.859Z,101585.44
2022-09-12T09:17:41.219Z,101564.13
2022-09-12T09:20:34.597Z,101580.91
2022-09-12T09:23:12.684Z,101573.69
2022-09-12T09:26:09.943Z,101572.50
2022-09-12T09:28:42.553Z,101583.50
2022-09-12T09:31:16.753Z,101571.94
2022-09-12T09:33:44.328Z,101571.50
2022-09-12T09:36:49.948Z,101572.84
2022-09-12T09:39:28.505Z,101569.91
2022-09-12T09:42:10.335Z,101560.94
2022-09-12T09:44:37.005Z,101563.63
2022-09-12T09:47:03.436Z,101552.34
2022-09-12T09:49:33.658Z,101554.47
2022-09-12T09:52:00.956Z,101558.94
2022-09-12T09:54:40.687Z,101556.47
2022-09-12T09:57:34.800Z,101551.09
2022-09-12T10:00:24.272Z,101546.81
2022-09-12T10:03:21.768Z,101538.97
2022-09-12T10:05:51.502Z,101542.63
2022-09-12T10:08:30.068Z,101535.50
2022-09-12T10:11:06.115Z,101530.88
2022-09-12T10:13:39.516Z,101529.94
2022-09-12T10:16:17.518Z,101519.41
2022-09-12T10:18:43.945Z,101520.91
2022-09-12T10:21:21.779Z,101512.81
2022-09-12T10:23:58.001Z,101518.28
2022-09-12T10:26:24.444Z,101519.00
2022-09-12T10:28:53.724Z,101499.38
2022-09-12T10:31:26.462Z,101507.16
2022-09-12T10:33:52.977Z,101496.56
2022-09-12T10:36:20.763Z,101501.44
2022-09-12T10:39:01.212Z,101491.03
2022-09-12T10:41:36.458Z,101498.00
2022-09-12T10:44:16.061Z,101492.13
2022-09-12T10:46:42.358Z,101476.22
2022-09-12T10:49:14.591Z,101486.31
2022-09-12T10:51:40.953Z,101492.00
2022-09-12T10:54:10.635Z,101485.78
2022-09-12T10:56:44.597Z,101480.78
2022-09-12T10:59:43.117Z,101489.22
2022-09-12T11:02:18.722Z,101482.84
2022-09-12T11:05:14.295Z,101473.78
2022-09-12T11:07:48.154Z,101482.91
2022-09-12T11:10:44.445Z,101477.38
2022-09-12T11:13:20.028Z,101468.31
2022-09-12T11:16:09.347Z,101462.06
2022-09-12T11:19:06.917Z,101461.97
2022-09-12T11:22:16.451Z,101459.81
2022-09-12T11:25:10.426Z,101452.78
2022-09-12T11:28:14.046Z,101453.16
2022-09-12T11:31:20.248Z,101457.84
2022-09-12T11:33:52.407Z,101459.63
2022-09-12T11:36:41.303Z,101448.59
2022-09-12T11:39:14.637Z,101459.25
2022-09-12T11:42:04.270Z,101447.00
2022-09-12T11:44:40.425Z,101447.88
2022-09-12T11:47:14.283Z,101454.25
2022-09-12T11:49:47.029Z,101454.19
2022-09-12T11:52:25.420Z,101448.59
2022-09-12T11:54:57.490Z,101454.63
2022-09-12T11:57:39.220Z,101456.44
2022-09-12T12:00:15.864Z,101447.50
2022-09-12T12:03:04.713Z,101440.50
2022-09-12T12:05:37.249Z,101441.91
2022-09-12T12:08:06.371Z,101433.06
2022-09-12T12:10:37.752Z,101443.91
2022-09-12T12:13:18.256Z,101432.16
2022-09-12T12:15:48.417Z,101440.16
2022-09-12T12:18:29.672Z,101439.31
2022-09-12T12:21:15.606Z,101437.09
2022-09-12T12:24:03.684Z,101439.09
2022-09-12T12:26:38.876Z,101439.91
2022-09-12T12:29:31.568Z,101440.53
2022-09-12T12:32:03.564Z,101429.38
2022-09-12T12:34:41.045Z,101427.75
2022-09-12T12:37:19.577Z,101427.75
2022-09-12T12:39:45.915Z,101424.38
2022-09-12T12:42:35.133Z,101420.31
2022-09-12T12:45:16.741Z,101421.81
2022-09-12T12:47:47.487Z,101402.50
2022-09-12T12:50:16.842Z,101400.09
2022-09-12T12:52:59.867Z,101405.69
2022-09-12T12:55:46.022Z,101401.09
2022-09-12T12:58:27.011Z,101392.94
2022-09-12T13:01:16.776Z,101392.25
2022-09-12T13:03:54.422Z,101381.78
2022-09-12T13:06:41.068Z,101390.25
2022-09-12T13:09:27.622Z,101378.38
2022-09-12T13:12:05.275Z,101372.44
2022-09-12T13:14:48.078Z,101368.06
2022-09-12T13:17:21.794Z,101369.97
2022-09-12T13:19:49.743Z,101364.38
2022-09-12T13:22:16.190Z,101360.09
2022-09-12T13:24:44.211Z,101343.09
2022-09-12T13:27:23.249Z,101333.00
2022-09-12T13:29:50.076Z,101341.59
2022-09-12T13:32:18.212Z,101342.28
2022-09-12T13:35:01.305Z,101334.91
2022-09-12T13:37:47.580Z,101336.81
2022-09-12T13:40:41.027Z,101329.03
2022-09-12T13:43:29.205Z,101329.25
2022-09-12T13:45:55.638Z,101318.50
2022-09-12T13:48:25.163Z,101321.31
2022-09-12T13:50:54.143Z,101326.28
2022-09-12T13:53:23.717Z,101311.56
2022-09-12T13:55:53.534Z,101314.00
2022-09-12T13:58:24.432Z,101316.47
2022-09-12T14:01:06.197Z,101314.09
2022-09-12T14:03:38.639Z,101316.97
2022-09-12T14:06:05.026Z,101307.94
2022-09-12T14:08:31.540Z,101300.94
2022-09-12T14:10:57.956Z,101309.63
2022-09-12T14:13:26.571Z,101305.56
2022-09-12T14:15:55.723Z,101298.09
2022-09-12T14:18:30.600Z,101294.41
2022-09-12T14:21:08.579Z,101306.56
2022-09-12T14:23:36.087Z,101311.84
2022-09-12T14:26:04.308Z,101300.88
2022-09-12T14:28:31.940Z,101300.56
2022-09-12T14:31:22.755Z,101305.94
2022-09-12T14:33:53.493Z,101309.13
2022-09-12T14:36:40.213Z,101285.06
2022-09-12T14:39:18.108Z,101288.13
2022-09-12T14:41:44.956Z,101298.03
2022-09-12T14:44:17.834Z,101290.78
2022-09-12T14:46:44.805Z,101284.72
2022-09-12T14:49:19.354Z,101292.84
2022-09-12T14:51:57.901Z,101283.81
2022-09-12T14:54:44.505Z,101282.94
2022-09-12T14:57:30.615Z,101278.72
2022-09-12T15:00:26.539Z,101285.34
2022-09-12T15:02:53.479Z,101283.09
2022-09-12T15:05:23.702Z,101280.41
2022-09-12T15:07:58.714Z,101278.00
2022-09-12T15:10:28.031Z,101263.13
2022-09-12T15:13:09.424Z,101266.31
2022-09-12T15:15:38.079Z,101259.38
2022-09-12T15:18:06.807Z,101255.50
2022-09-12T15:20:36.142Z,101231.97
2022-09-12T15:23:02.502Z,101242.50
2022-09-12T15:25:28.825Z,101251.00
2022-09-12T15:27:55.208Z,101259.59
2022-09-12T15:30:21.836Z,101255.66
2022-09-12T15:32:48.138Z,101250.50
2022-09-12T15:35:23.600Z,101245.75
2022-09-12T15:37:50.040Z,101232.75
2022-09-12T15:40:17.014Z,101229.72
2022-09-12T15:42:43.583Z,101239.66
2022-09-12T15:45:22.504Z,101235.53
2022-09-12T15:47:48.993Z,101240.84
2022-09-12T15:50:15.380Z,101230.97
2022-09-12T15:52:42.375Z,101223.16
2022-09-12T15:55:21.152Z,101224.69
2022-09-12T15:57:47.750Z,101227.38
2022-09-12T16:00:15.368Z,101223.72
2022-09-12T16:02:41.774Z,101217.63
2022-09-12T16:05:14.276Z,101220.03
2022-09-12T16:07:40.603Z,101199.13
2022-09-12T16:10:07.445Z,101204.97
2022-09-12T16:12:33.800Z,101199.63
2022-09-12T16:15:00.111Z,101191.50
2022-09-12T16:17:26.466Z,101181.13
2022-09-12T16:19:52.811Z,101197.63
2022-09-12T16:22:19.128Z,101195.25
2022-09-12T16:24:45.435Z,101199.53
2022-09-12T16:27:12.002Z,101196.56
2022-09-12T16:29:38.377Z,101193.66
2022-09-12T16:32:04.818Z,101199.03
2022-09-12T16:34:31.147Z,101189.22
2022-09-12T16:36:57.456Z,101189.25
2022-09-12T16:39:23.768Z,101182.59
2022-09-12T16:41:50.111Z,101173.59
2022-09-12T16:44:16.398Z,101177.13
2022-09-12T16:46:42.770Z,101187.03
2022-09-12T16:49:10.171Z,101185.50
2022-09-12T16:51:36.516Z,101183.97
2022-09-12T16:54:02.894Z,101186.97
2022-09-12T16:56:29.658Z,101173.50
2022-09-12T16:58:56.022Z,101161.06
2022-09-12T17:01:24.532Z,101167.34
2022-09-12T17:03:58.741Z,101165.56
2022-09-12T17:06:26.126Z,101163.84
2022-09-12T17:08:54.293Z,101175.34
2022-09-12T17:11:24.223Z,101174.06
2022-09-12T17:14:05.048Z,101172.28
2022-09-12T17:16:34.356Z,101175.53
2022-09-12T17:19:00.682Z,101169.69
2022-09-12T17:21:27.050Z,101157.81
2022-09-12T17:23:53.597Z,101154.41
2022-09-12T17:26:20.327Z,101158.44
2022-09-12T17:28:46.655Z,101159.03
2022-09-12T17:31:14.550Z,101155.34
2022-09-12T17:33:41.383Z,101146.81
2022-09-12T17:36:11.199Z,101143.38
2022-09-12T17:38:39.492Z,101142.63
2022-09-12T17:41:15.133Z,101141.56
2022-09-12T17:43:42.139Z,101146.34
2022-09-12T17:46:08.618Z,101137.84
2022-09-12T17:48:35.321Z,101137.84
2022-09-12T17:51:09.875Z,101135.72
2022-09-12T17:53:36.246Z,101132.47
2022-09-12T17:56:03.857Z,101125.53
2022-09-12T17:58:32.329Z,101123.94
2022-09-12T18:01:06.719Z,101120.72
2022-09-12T18:03:33.023Z,101116.72
2022-09-12T18:05:59.332Z,101132.97
2022-09-12T18:08:25.697Z,101140.94
2022-09-12T18:10:52.068Z,101141.19
2022-09-12T18:13:18.515Z,101140.88
2022-09-12T18:15:44.953Z,101144.88
2022-09-12T18:18:11.332Z,101151.25
2022-09-12T18:20:37.648Z,101134.97
2022-09-12T18:23:03.983Z,101142.41
2022-09-12T18:25:30.292Z,101153.31
2022-09-12T18:27:56.587Z,101139.66
2022-09-12T18:30:22.966Z,101148.13
2022-09-12T18:32:49.331Z,101152.09
2022-09-12T18:35:15.855Z,101136.34
2022-09-12T18:37:42.822Z,101140.09
2022-09-12T18:40:10.000Z,101144.31
2022-09-12T18:42:36.345Z,101129.63
2022-09-12T18:45:02.669Z,101129.88
2022-09-12T18:47:28.982Z,101129.81
2022-09-12T18:49:55.308Z,101141.25
2022-09-12T18:52:21.598Z,101143.56
2022-09-12T18:54:47.900Z,101133.66
2022-09-12T18:57:14.218Z,101143.47
2022-09-12T18:59:40.507Z,101140.22
2022-09-12T19:02:06.967Z,101136.94
2022-09-12T19:04:33.345Z,101139.00
2022-09-12T19:06:59.652Z,101128.56
2022-09-12T19:09:26.043Z,101139.38
2022-09-12T19:11:52.363Z,101138.84
2022-09-12T19:14:20.997Z,101126.28
2022-09-12T19:16:47.293Z,101141.38
2022-09-12T19:19:13.684Z,101137.88
2022-09-12T19:21:39.978Z,101139.44
2022-09-12T19:24:08.563Z,101138.06
2022-09-12T19:26:36.326Z,101132.72
2022-09-12T19:29:03.117Z,101102.81
2022-09-12T19:31:30.462Z,101114.75
2022-09-12T19:34:05.002Z,101124.03
2022-09-12T19:36:45.045Z,101107.47
2022-09-12T19:39:13.192Z,101111.97
2022-09-12T19:41:39.579Z,101102.81
2022-09-12T19:44:06.134Z,101110.22
2022-09-12T19:46:32.699Z,101107.31
2022-09-12T19:48:59.080Z,101092.16
2022-09-12T19:51:25.511Z,101087.00
2022-09-12T19:53:52.327Z,101087.78
2022-09-12T19:56:19.399Z,101089.63
2022-09-12T19:58:49.846Z,101084.81
2022-09-12T20:01:22.695Z,101093.31
2022-09-12T20:03:49.102Z,101081.06
2022-09-12T20:06:17.349Z,101085.31
2022-09-12T20:08:43.845Z,101083.41
2022-09-12T20:11:12.526Z,101080.97
2022-09-12T20:13:38.896Z,101088.66
2022-09-12T20:16:30.434Z,101087.78
2022-09-12T20:19:00.255Z,101095.63
2022-09-12T20:21:28.845Z,101104.34
2022-09-12T20:23:55.174Z,101094.41
2022-09-12T20:26:21.465Z,101094.34
2022-09-12T20:28:48.003Z,101099.69
2022-09-12T20:31:15.673Z,101083.81
2022-09-12T20:33:42.975Z,101073.38
2022-09-12T20:36:12.176Z,101078.50
2022-09-12T20:38:38.868Z,101075.25
2022-09-12T20:41:07.590Z,101066.19
2022-09-12T20:43:33.944Z,101074.69
2022-09-12T20:46:04.861Z,101062.66
2022-09-12T20:48:31.179Z,101065.53
2022-09-12T20:51:00.685Z,101064.75
2022-09-12T20:53:30.646Z,101061.22
2022-09-12T20:56:00.814Z,101066.00
2022-09-12T20:58:27.125Z,101067.63
2022-09-12T21:00:53.612Z,101071.31
2022-09-12T21:03:19.945Z,101067.31
2022-09-12T21:05:46.570Z,101079.53
2022-09-12T21:08:14.155Z,101069.16
2022-09-12T21:10:41.486Z,101067.72
2022-09-12T21:13:12.458Z,101056.91
2022-09-12T21:15:40.263Z,101060.56
2022-09-12T21:18:07.158Z,101055.09
2022-09-12T21:20:33.688Z,101068.94
2022-09-12T21:23:00.130Z,101073.06
2022-09-12T21:25:26.544Z,101066.91
2022-09-12T21:27:52.916Z,101059.59
2022-09-12T21:30:19.229Z,101069.38
2022-09-12T21:32:45.587Z,101062.16
2022-09-12T21:35:11.900Z,101050.38
2022-09-12T21:37:38.471Z,101060.50
2022-09-12T21:40:05.189Z,101058.81
2022-09-12T21:42:31.530Z,101064.66
2022-09-12T21:44:57.838Z,101060.41
2022-09-12T21:47:24.159Z,101058.31
2022-09-12T21:49:50.524Z,101066.81
2022-09-12T21:52:16.858Z,101068.44
2022-09-12T21:54:43.193Z,101047.16
2022-09-12T21:57:09.510Z,101060.25
2022-09-12T21:59:35.812Z,101068.75
2022-09-12T22:02:02.194Z,101063.13
2022-09-12T22:04:28.542Z,101066.34
2022-09-12T22:06:54.846Z,101067.94
2022-09-12T22:09:21.139Z,101062.97
2022-09-12T22:11:47.607Z,101049.69
2022-09-12T22:14:13.895Z,101038.03
2022-09-12T22:16:40.261Z,101030.88
2022-09-12T22:19:06.602Z,101052.81
2022-09-12T22:21:32.892Z,101041.06
2022-09-12T22:23:59.319Z,101045.34
2022-09-12T22:26:25.672Z,101044.88
2022-09-12T22:28:52.027Z,101058.72
2022-09-12T22:31:18.773Z,101054.78
2022-09-12T22:33:45.103Z,101056.16
2022-09-12T22:36:11.645Z,101063.16
2022-09-12T22:38:37.983Z,101054.66
2022-09-12T22:41:10.411Z,101058.50
2022-09-12T22:43:36.972Z,101061.47
2022-09-12T22:46:11.138Z,101057.50
2022-09-12T22:48:37.781Z,101052.72
2022-09-12T22:51:05.182Z,101052.53
2022-09-12T22:53:31.850Z,101055.75
2022-09-12T22:55:58.368Z,101051.25
2022-09-12T22:58:24.756Z,101044.91
2022-09-12T23:00:52.046Z,101054.94
2022-09-12T23:03:19.292Z,101043.81
2022-09-12T23:05:46.644Z,101032.88
2022-09-12T23:08:14.367Z,101042.28
2022-09-12T23:10:40.728Z,101026.06
2022-09-12T23:13:07.367Z,101042.34
2022-09-12T23:15:33.708Z,101039.44
2022-09-12T23:18:00.079Z,101042.09
2022-09-12T23:20:28.095Z,101023.50
2022-09-12T23:22:54.516Z,101027.81
2022-09-12T23:25:22.185Z,101024.94
2022-09-12T23:27:48.576Z,101018.00
2022-09-12T23:30:15.023Z,101012.16
2022-09-12T23:32:41.332Z,101015.69
2022-09-12T23:35:07.717Z,101014.38
2022-09-12T23:37:34.007Z,101009.63
2022-09-12T23:40:00.402Z,101003.03
2022-09-12T23:42:26.795Z,101007.06
2022-09-12T23:44:53.098Z,101007.84
2022-09-12T23:47:19.416Z,100998.56
2022-09-12T23:49:45.746Z,101002.81
2022-09-12T23:52:12.096Z,101002.63
2022-09-12T23:54:38.391Z,101002.38
2022-09-12T23:57:04.791Z,100992.75
2022-09-12T23:59:31.124Z,101002.38
